createdAt,value
2022-12-27T00:00:07.534Z,3.20
2022-12-27T00:05:16.431Z,4.13
2022-12-27T00:10:18.979Z,3.93
2022-12-27T00:15:21.559Z,4.07
2022-12-27T00:20:24.094Z,2.80
2022-12-27T00:25:26.732Z,2.92
2022-12-27T00:30:29.207Z,2.95
2022-12-27T00:35:31.720Z,3.03
2022-12-27T00:40:34.188Z,2.63
2022-12-27T00:45:36.761Z,3.27
2022-12-27T00:50:44.336Z,3.30
2022-12-27T00:55:46.873Z,3.30
2022-12-27T01:00:50.302Z,3.93
2022-12-27T01:05:52.776Z,3.13
2022-12-27T01:10:55.426Z,2.70
2022-12-27T01:15:58.233Z,2.67
2022-12-27T01:21:05.499Z,2.80
2022-12-27T01:26:13.133Z,1.97
2022-12-27T01:31:19.877Z,3.30
2022-12-27T01:36:23.889Z,3.03
2022-12-27T01:41:48.758Z,3.33
2022-12-27T01:46:51.311Z,3.65
2022-12-27T01:51:54.037Z,3.53
2022-12-27T01:56:57.764Z,3.60
2022-12-27T02:02:01.527Z,4.13
2022-12-27T02:07:06.219Z,3.95
2022-12-27T02:12:10.393Z,3.17
2022-12-27T02:17:18.903Z,3.17
2022-12-27T02:22:30.334Z,3.17
2022-12-27T02:27:38.651Z,3.57
2022-12-27T02:32:46.238Z,3.60
2022-12-27T02:38:01.588Z,4.25
2022-12-27T02:43:23.932Z,2.80
2022-12-27T02:48:47.883Z,3.55
2022-12-27T02:54:01.767Z,3.93
2022-12-27T02:59:28.246Z,4.18
2022-12-27T03:05:00.577Z,3.88
2022-12-27T03:11:02.297Z,4.70
2022-12-27T03:16:27.203Z,3.22
2022-12-27T03:21:58.856Z,4.10
2022-12-27T03:27:05.164Z,5.10
2022-12-27T03:32:30.721Z,5.40
2022-12-27T03:37:57.145Z,5.40
2022-12-27T03:43:12.238Z,4.60
2022-12-27T03:48:21.548Z,5.73
2022-12-27T03:53:31.494Z,7.10
2022-12-27T03:58:34.354Z,5.63
2022-12-27T04:03:36.898Z,4.40
2022-12-27T04:08:59.860Z,4.88
2022-12-27T04:14:21.007Z,5.57
2022-12-27T04:19:41.823Z,5.13
2022-12-27T04:25:03.027Z,4.82
2022-12-27T04:30:24.756Z,6.93
2022-12-27T04:35:27.245Z,6.10
2022-12-27T04:40:48.047Z,6.77
2022-12-27T04:46:09.011Z,5.18
2022-12-27T04:51:30.252Z,5.97
2022-12-27T04:56:33.151Z,5.00
2022-12-27T05:01:54.086Z,5.43
2022-12-27T05:06:58.851Z,11.37
2022-12-27T05:12:19.661Z,6.28
2022-12-27T05:17:23.173Z,4.80
2022-12-27T05:22:44.209Z,4.07
2022-12-27T05:27:46.714Z,3.10
2022-12-27T05:32:54.299Z,3.67
2022-12-27T05:37:57.485Z,3.65
2022-12-27T05:43:03.746Z,2.50
2022-12-27T05:48:06.490Z,3.03
2022-12-27T05:53:08.970Z,3.42
2022-12-27T05:58:11.815Z,2.80
2022-12-27T06:03:14.442Z,3.30
2022-12-27T06:08:17.279Z,2.88
2022-12-27T06:13:20.511Z,2.57
2022-12-27T06:18:27.193Z,2.22
2022-12-27T06:23:29.872Z,3.60
2022-12-27T06:28:35.609Z,4.00
2022-12-27T06:33:39.896Z,3.20
2022-12-27T06:38:43.895Z,3.97
2022-12-27T06:43:47.306Z,4.85
2022-12-27T06:48:53.024Z,5.73
2022-12-27T06:53:55.608Z,5.47
2022-12-27T06:58:58.249Z,5.25
2022-12-27T07:04:01.418Z,5.27
2022-12-27T07:09:09.145Z,4.85
2022-12-27T07:14:11.644Z,5.00
2022-12-27T07:19:14.900Z,4.15
2022-12-27T07:24:18.953Z,5.78
2022-12-27T07:29:21.463Z,6.27
2022-12-27T07:34:26.250Z,6.35
2022-12-27T07:39:31.567Z,6.10
2022-12-27T07:44:34.737Z,10.90
2022-12-27T07:49:37.233Z,7.60
2022-12-27T07:54:39.730Z,6.00
2022-12-27T07:59:42.255Z,4.97
2022-12-27T08:04:47.213Z,4.07
2022-12-27T08:09:49.865Z,3.45
2022-12-27T08:14:52.404Z,3.55
2022-12-27T08:19:58.090Z,7.03
2022-12-27T08:25:01.554Z,7.53
2022-12-27T08:30:05.899Z,3.40
2022-12-27T08:35:41.994Z,3.60
2022-12-27T08:40:31.526Z,3.55
2022-12-27T08:45:34.127Z,6.00
2022-12-27T08:50:39.263Z,4.97
2022-12-27T08:55:42.248Z,4.90
2022-12-27T09:00:44.793Z,5.03
2022-12-27T09:05:50.272Z,4.38
2022-12-27T09:10:53.028Z,5.83
2022-12-27T09:15:55.610Z,5.53
2022-12-27T09:21:13.522Z,6.27
2022-12-27T09:26:17.436Z,5.10
2022-12-27T09:31:23.130Z,4.90
2022-12-27T09:36:28.387Z,6.07
2022-12-27T09:47:13.623Z,8.57
2022-12-27T09:52:38.531Z,6.30
2022-12-27T09:57:47.527Z,6.30
2022-12-27T10:02:52.433Z,4.90
2022-12-27T10:08:17.785Z,4.10
2022-12-27T10:13:21.752Z,16.10
2022-12-27T10:18:49.027Z,6.43
2022-12-27T10:24:01.827Z,4.45
2022-12-27T10:29:15.682Z,5.37
2022-12-27T10:34:24.799Z,5.90
2022-12-27T10:39:31.086Z,5.77
2022-12-27T10:44:34.288Z,7.43
2022-12-27T10:49:38.000Z,5.47
2022-12-27T10:54:52.539Z,4.33
2022-12-27T11:00:24.610Z,2.85
2022-12-27T11:05:32.404Z,2.97
2022-12-27T11:10:35.194Z,2.97
2022-12-27T11:15:41.357Z,2.10
2022-12-27T11:20:51.449Z,2.27
2022-12-27T11:25:59.839Z,2.55
2022-12-27T11:31:15.257Z,2.13
2022-12-27T11:36:31.259Z,2.45
2022-12-27T11:41:47.632Z,2.90
2022-12-27T11:46:59.309Z,2.80
2022-12-27T11:52:24.798Z,1.85
2022-12-27T11:58:00.683Z,2.83
2022-12-27T12:03:34.933Z,3.33
2022-12-27T12:08:46.580Z,2.13
2022-12-27T12:14:09.299Z,2.83
2022-12-27T12:19:17.772Z,2.35
2022-12-27T12:24:26.785Z,2.60
2022-12-27T12:30:00.110Z,2.53
2022-12-27T12:35:47.011Z,2.13
2022-12-27T12:41:10.908Z,3.40
2022-12-27T12:46:38.717Z,2.78
2022-12-27T12:51:47.430Z,3.27
2022-12-27T12:56:59.215Z,2.83
2022-12-27T13:02:01.842Z,3.70
2022-12-27T13:07:13.610Z,2.63
2022-12-27T13:12:52.280Z,2.92
2022-12-27T13:18:32.670Z,3.03
2022-12-27T13:23:59.432Z,3.42
2022-12-27T13:29:39.239Z,2.65
2022-12-27T13:35:22.648Z,2.90
2022-12-27T13:40:56.241Z,2.70
2022-12-27T13:46:16.704Z,3.50
2022-12-27T13:51:42.390Z,2.47
2022-12-27T13:56:54.854Z,2.60
2022-12-27T14:02:35.046Z,1.90
2022-12-27T14:07:56.543Z,2.95
2022-12-27T14:13:01.805Z,3.73
2022-12-27T14:18:23.347Z,2.63
2022-12-27T14:24:05.386Z,1.85
2022-12-27T14:29:27.789Z,5.27
2022-12-27T14:35:07.294Z,6.68
2022-12-27T14:41:09.341Z,3.53
2022-12-27T14:47:05.092Z,4.53
2022-12-27T14:52:28.848Z,5.93
2022-12-27T14:57:55.561Z,7.17
2022-12-27T15:03:33.703Z,8.82
2022-12-27T15:09:18.074Z,7.63
2022-12-27T15:14:23.109Z,5.95
2022-12-27T15:19:44.095Z,3.33
2022-12-27T15:25:00.927Z,3.47
2022-12-27T15:30:33.298Z,2.30
2022-12-27T15:35:56.283Z,3.20
2022-12-27T15:41:19.445Z,2.88
2022-12-27T15:46:45.766Z,2.55
2022-12-27T15:52:06.128Z,4.47
2022-12-27T15:57:45.974Z,3.40
2022-12-27T16:02:48.582Z,3.10
2022-12-27T16:08:00.324Z,2.42
2022-12-27T16:13:14.660Z,3.20
2022-12-27T16:18:17.111Z,3.20
2022-12-27T16:23:30.897Z,3.10
2022-12-27T16:28:35.896Z,2.70
2022-12-27T16:33:42.463Z,2.92
2022-12-27T16:38:55.469Z,3.42
2022-12-27T16:44:00.800Z,3.80
2022-12-27T16:49:23.494Z,3.88
2022-12-27T16:54:58.124Z,3.80
2022-12-27T17:00:12.247Z,3.72
2022-12-27T17:05:17.463Z,2.75
2022-12-27T17:10:31.914Z,3.57
2022-12-27T17:15:35.108Z,3.03
2022-12-27T17:20:41.333Z,2.53
2022-12-27T17:25:54.032Z,2.63
2022-12-27T17:31:08.515Z,3.45
2022-12-27T17:36:38.275Z,2.30
2022-12-27T17:42:21.780Z,2.65
2022-12-27T17:48:02.079Z,2.33
2022-12-27T17:53:28.483Z,2.55
2022-12-27T17:58:35.141Z,3.05
2022-12-27T18:03:45.605Z,3.80
2022-12-27T18:08:49.637Z,3.47
2022-12-27T18:13:55.330Z,2.43
2022-12-27T18:19:02.571Z,3.13
2022-12-27T18:24:25.494Z,3.75
2022-12-27T18:29:31.234Z,4.40
2022-12-27T18:34:59.311Z,3.92
2022-12-27T18:40:05.007Z,3.50
2022-12-27T18:45:18.679Z,3.03
2022-12-27T18:50:23.766Z,3.15
2022-12-27T18:55:27.722Z,3.10
2022-12-27T19:00:30.999Z,2.92
2022-12-27T19:05:36.544Z,3.13
2022-12-27T19:10:48.256Z,2.60
2022-12-27T19:15:55.043Z,1.92
2022-12-27T19:21:00.375Z,3.33
2022-12-27T19:26:18.194Z,2.70
2022-12-27T19:31:22.265Z,3.07
2022-12-27T19:36:54.901Z,2.83
2022-12-27T19:42:01.216Z,2.78
2022-12-27T19:47:04.399Z,3.67
2022-12-27T19:52:11.389Z,3.20
2022-12-27T19:57:14.046Z,3.37
2022-12-27T20:02:18.421Z,4.03
2022-12-27T20:07:26.211Z,4.10
2022-12-27T20:12:28.996Z,3.90
2022-12-27T20:17:32.763Z,4.25
2022-12-27T20:22:36.437Z,4.20
2022-12-27T20:27:38.945Z,3.70
2022-12-27T20:32:41.477Z,3.47
2022-12-27T20:37:44.002Z,3.80
2022-12-27T20:42:46.522Z,3.60
2022-12-27T20:47:48.959Z,3.33
2022-12-27T20:52:51.438Z,3.80
2022-12-27T20:57:53.939Z,3.78
2022-12-27T21:02:57.273Z,3.60
2022-12-27T21:07:59.848Z,2.42
2022-12-27T21:13:05.266Z,3.20
2022-12-27T21:18:07.740Z,2.88
2022-12-27T21:23:10.181Z,2.58
2022-12-27T21:28:12.714Z,2.87
2022-12-27T21:33:15.209Z,3.17
2022-12-27T21:38:17.736Z,2.87
2022-12-27T21:43:20.238Z,3.03
2022-12-27T21:48:22.882Z,2.97
2022-12-27T21:53:25.358Z,2.50
2022-12-27T21:58:33.698Z,4.03
2022-12-27T22:03:40.935Z,4.03
2022-12-27T22:08:45.350Z,3.90
2022-12-27T22:13:48.204Z,2.88
2022-12-27T22:18:51.396Z,3.17
2022-12-27T22:23:56.925Z,2.17
2022-12-27T22:28:59.464Z,3.03
2022-12-27T22:34:03.693Z,3.00
2022-12-27T22:39:06.438Z,2.67
2022-12-27T22:44:12.732Z,3.30
2022-12-27T22:49:15.707Z,3.53
2022-12-27T22:54:18.544Z,3.70
2022-12-27T22:59:21.021Z,4.50
2022-12-27T23:04:23.509Z,3.35
2022-12-27T23:09:25.984Z,3.47
2022-12-27T23:14:28.726Z,4.10
2022-12-27T23:19:31.200Z,4.07
2022-12-27T23:24:33.761Z,3.88
2022-12-27T23:29:36.317Z,4.03
2022-12-27T23:34:38.876Z,3.93
2022-12-27T23:39:41.387Z,3.67
2022-12-27T23:44:43.872Z,4.67
2022-12-27T23:49:46.436Z,4.25
2022-12-27T23:54:48.958Z,4.38
2022-12-27T23:59:51.981Z,4.03
